Terminal Aerodrome Forecast
Issued by NWS

Home | Current Version | Previous Version | Text Only | Print | Product List | Glossary On
Versions: 1 2 3 4 5 6 7 8 9 10 11 12 13 14 15
000
FTUS46 KPDT 231700
TAFDLS
TAF
KDLS 231723Z 2318/2418 33007KT P6SM VCSH SCT060 BKN100
     FM240300 VRB05KT P6SM -RA OVC060
     FM241600 33006KT P6SM -RA OVC050=

USA.gov is the U.S. government's official web portal to all federal, state and local government web resources and services.